Country
Station

 

Weather  for  Millinocket, Millinocket Municipal Airport  -  United States    United States

  
-6 °C (21 °F)
    
 
 

Current METAR for Millinocket, Millinocket Municipal Airport is :

KMLT 111853Z AUTO VRB03KT 10SM CLR M06/M15 A3003 RMK AO2 SLP182 T10611150

 

This is a report for Millinocket, Millinocket Municipal Airport - United States.
 
The report was made 34 minutes ago, at 18:53 UTC .
The wind was blowing at a speed of 1.5 meters per second (3.5 miles per hour) from variable directions.
 
The temperature was -6 °C (21 °F), with a dew-point at -15 °C (5 °F).
The temperature felt like -8 °C (16 °F).
 
The atmospheric pressure was 1017 hPa (30.03 inHg).
The relative humidity was 48.8%.
 
The sky was clear.
 
The overall visibility was 16.1 kilometers (10.0 miles).
 

 
 
 
 

Country :   A   B   C   D   E   F   G   H   I   J   K   L   M   N   O   P   Q   R   S   T   U   V   W   Y   Z

 

Site Info  |  Disclaimer  |  Credits  |  Privacy
Contact us  |  Add to favorites
© 2013-2018 METARs - All rights reserved